Time;durP1;ratioP1;P1;durP2;ratioP2;P2;SDS_P1;SDS_P2;PMS_P1;PMS_P2;Temp;Humidity;BMP_temperature;BMP_pressure;BME280_temperature;BME280_humidity;BME280_pressure;Samples;Min_cycle;Max_cycle;Signal;HPM_P1;HPM_P2
2022/10/03 00:02:01;;;;;;;8.85;4.72;;;;;;;18.13;89.00;100939.59;5101954;28;20051;-69
2022/10/03 00:04:45;;;;;;;9.13;5.10;;;;;;;18.14;89.30;100934.91;5105529;28;20052;-69
2022/10/03 00:07:15;;;;;;;9.32;4.65;;;;;;;18.00;89.62;100930.25;5104899;28;20044;-69
2022/10/03 00:10:04;;;;;;;6.85;4.65;;;;;;;18.05;89.34;100934.00;5112101;28;20047;-69
2022/10/03 00:12:57;;;;;;;7.78;5.20;;;;;;;18.05;89.78;100942.31;5111360;28;20048;-69
2022/10/03 00:15:30;;;;;;;6.95;5.38;;;;;;;17.95;90.24;100949.78;5110514;28;20067;-68
2022/10/03 00:18:04;;;;;;;11.18;4.75;;;;;;;17.99;90.88;100942.47;5110983;28;20051;-69
2022/10/03 00:21:07;;;;;;;7.28;5.18;;;;;;;17.96;89.63;100945.91;5093116;28;20048;-69
2022/10/03 00:23:35;;;;;;;8.90;4.88;;;;;;;17.90;90.82;100944.41;5103927;28;20082;-69
2022/10/03 00:26:26;;;;;;;7.53;5.18;;;;;;;17.90;90.65;100944.41;5109977;28;20525;-69
2022/10/03 00:29:15;;;;;;;10.50;4.75;;;;;;;17.85;91.02;100955.63;5111277;28;20051;-69
2022/10/03 00:31:45;;;;;;;11.82;5.28;;;;;;;17.85;91.30;100956.44;5108035;28;20048;-68
2022/10/03 00:34:31;;;;;;;7.20;4.90;;;;;;;17.88;91.72;100949.44;5111560;28;20078;-69
2022/10/03 00:37:22;;;;;;;8.27;4.63;;;;;;;17.90;91.90;100962.97;5110258;28;20058;-69
2022/10/03 00:40:28;;;;;;;8.20;5.05;;;;;;;17.86;92.24;100951.72;5112187;28;20051;-69
2022/10/03 00:43:25;;;;;;;9.82;5.57;;;;;;;17.86;91.89;100951.72;5059174;28;20053;-68
2022/10/03 00:46:22;;;;;;;10.63;5.30;;;;;;;17.57;93.15;100961.38;5053452;28;20053;-69
2022/10/03 00:48:51;;;;;;;8.80;4.85;;;;;;;17.59;93.04;100959.91;5096036;28;20769;-69
2022/10/03 00:51:42;;;;;;;8.20;5.35;;;;;;;17.51;93.90;100966.25;5115989;28;20063;-69
2022/10/03 00:54:25;;;;;;;11.23;5.50;;;;;;;17.54;93.19;100967.56;5103260;28;20047;-68
2022/10/03 00:57:02;;;;;;;11.80;5.78;;;;;;;17.41;94.63;100967.31;5115745;28;20051;-68
2022/10/03 01:00:07;;;;;;;9.90;5.93;;;;;;;17.62;93.42;100979.78;5115757;28;20051;-69
2022/10/03 01:03:04;;;;;;;12.30;6.03;;;;;;;17.69;92.66;100978.19;5114151;28;20048;-68
2022/10/03 01:05:46;;;;;;;8.85;5.28;;;;;;;17.67;92.60;100982.41;5113824;28;20054;-68
2022/10/03 01:08:32;;;;;;;9.57;5.18;;;;;;;17.67;93.20;100988.78;5114933;27;20051;-68
2022/10/03 01:11:03;;;;;;;8.88;5.68;;;;;;;17.68;93.38;100990.41;5097528;27;20398;-69
2022/10/03 01:14:08;;;;;;;8.02;5.75;;;;;;;17.81;92.41;100993.38;5099463;28;20489;-68
2022/10/03 01:16:54;;;;;;;10.30;5.68;;;;;;;17.71;92.33;101002.78;5109636;28;20051;-68
2022/10/03 01:19:45;;;;;;;10.00;6.20;;;;;;;17.72;92.25;100987.81;5114943;27;20043;-68
2022/10/03 01:22:51;;;;;;;9.02;6.30;;;;;;;17.83;91.84;100999.41;5109906;27;20055;-68
2022/10/03 01:25:33;;;;;;;9.10;5.72;;;;;;;17.85;91.56;100989.66;5045872;28;20056;-69
2022/10/03 01:30:57;;;;;;;8.05;5.85;;;;;;;17.90;91.19;100991.47;5079577;28;20098;-69
2022/10/03 01:33:33;;;;;;;9.25;6.32;;;;;;;17.81;92.10;101001.69;5114523;28;20052;-69
2022/10/03 01:36:31;;;;;;;10.38;7.00;;;;;;;17.85;91.81;100991.63;5113106;28;20405;-68
2022/10/03 01:39:06;;;;;;;13.23;5.75;;;;;;;17.84;92.72;100996.31;5113100;28;20413;-68
2022/10/03 01:41:45;;;;;;;11.27;6.20;;;;;;;17.85;92.37;100991.63;5110437;27;20604;-69
2022/10/03 01:44:34;;;;;;;10.52;5.95;;;;;;;17.94;92.26;101003.53;5113836;28;20051;-68
2022/10/03 01:47:05;;;;;;;9.82;5.57;;;;;;;17.84;91.61;101004.63;5113310;27;20054;-69
2022/10/03 01:50:11;;;;;;;7.97;5.38;;;;;;;17.86;92.53;101002.34;5114359;28;20048;-69
2022/10/03 01:52:57;;;;;;;7.40;5.35;;;;;;;17.90;92.42;101008.09;5098478;28;20048;-69
2022/10/03 01:55:48;;;;;;;11.07;6.10;;;;;;;17.94;92.17;101017.38;5111805;28;20035;-69
2022/10/03 01:58:38;;;;;;;11.95;6.70;;;;;;;18.03;90.76;101011.88;5113738;28;20047;-68
2022/10/03 02:01:13;;;;;;;11.50;6.35;;;;;;;18.13;90.14;101013.56;5104820;27;20047;-69
2022/10/03 02:03:53;;;;;;;9.27;6.07;;;;;;;18.03;90.65;101019.38;5108991;28;20058;-69
2022/10/03 02:06:59;;;;;;;;;;;;;;;;;;;;;
2022/10/03 02:09:39;;;;;;;9.77;5.82;;;;;;;18.09;90.54;101026.44;5108015;28;20051;-68
2022/10/03 02:12:34;;;;;;;8.52;5.78;;;;;;;18.07;90.36;101017.59;5108884;28;20058;-68
2022/10/03 02:15:20;;;;;;;8.32;6.10;;;;;;;17.98;91.54;101032.22;5114006;27;20047;-68
2022/10/03 02:17:52;;;;;;;10.32;6.28;;;;;;;18.06;92.04;101022.34;5112895;28;20043;-68
2022/10/03 02:20:42;;;;;;;10.40;5.75;;;;;;;18.11;91.38;101026.91;5111738;27;20579;-68
2022/10/03 02:23:35;;;;;;;10.88;6.22;;;;;;;18.13;91.41;101033.75;5102149;28;20051;-68
2022/10/03 02:26:30;;;;;;;9.75;5.95;;;;;;;18.07;91.30;101034.22;5106313;27;20044;-68
2022/10/03 02:29:34;;;;;;;10.52;5.60;;;;;;;18.19;90.75;101037.19;5113183;28;20133;-68
2022/10/03 02:32:53;;;;;;;9.57;5.45;;;;;;;18.24;91.19;101025.16;5109331;28;20056;-68
2022/10/03 02:35:58;;;;;;;9.65;5.63;;;;;;;18.05;91.79;101022.63;5069978;28;20048;-68
2022/10/03 02:38:28;;;;;;;13.73;5.70;;;;;;;18.06;92.00;101019.56;5099329;28;20040;-68
2022/10/03 02:41:08;;;;;;;8.00;5.70;;;;;;;18.00;91.60;101024.41;5107260;28;20511;-68
2022/10/03 02:43:54;;;;;;;9.73;6.35;;;;;;;17.93;92.69;101028.78;5113483;27;20043;-68
2022/10/03 02:46:35;;;;;;;10.10;6.80;;;;;;;18.02;92.78;101028.81;5112592;27;20042;-68
2022/10/03 02:49:45;;;;;;;8.00;6.05;;;;;;;18.03;92.13;101033.22;5100438;27;20048;-68
2022/10/03 02:52:47;;;;;;;7.95;6.15;;;;;;;17.96;93.17;101028.13;5092034;27;20504;-68
2022/10/03 02:55:45;;;;;;;10.52;6.15;;;;;;;17.92;92.58;101029.91;5112414;28;20059;-68
2022/10/03 02:58:48;;;;;;;8.43;5.85;;;;;;;17.85;93.07;101031.16;5111913;28;20044;-68
2022/10/03 03:01:21;;;;;;;8.10;6.05;;;;;;;17.85;92.89;101039.47;5108328;28;20044;-68
2022/10/03 03:04:18;;;;;;;8.20;5.57;;;;;;;17.91;93.20;101036.56;5105000;28;20054;-68
2022/10/03 03:07:19;;;;;;;9.98;5.90;;;;;;;17.93;92.06;101035.13;5093682;28;20051;-68
2022/10/03 03:10:06;;;;;;;13.45;6.63;;;;;;;17.92;92.50;101041.81;5110485;27;20385;-68
2022/10/03 03:12:58;;;;;;;15.55;6.28;;;;;;;17.89;92.95;101036.88;5090856;28;20067;-68
2022/10/03 03:15:47;;;;;;;8.52;5.47;;;;;;;17.82;93.95;101042.06;5110337;28;20044;-68
2022/10/03 03:19:03;;;;;;;7.25;5.65;;;;;;;17.89;92.74;101050.72;5099209;28;20047;-68
2022/10/03 03:21:57;;;;;;;9.98;5.25;;;;;;;17.86;93.45;101054.16;5092788;28;20063;-68
2022/10/03 03:24:43;;;;;;;8.95;5.97;;;;;;;17.80;93.63;101047.91;5108207;28;20039;-68
2022/10/03 03:27:17;;;;;;;10.82;6.50;;;;;;;17.79;93.37;101045.50;5102281;27;20047;-68
2022/10/03 03:30:01;;;;;;;9.63;6.03;;;;;;;17.70;94.51;101037.94;5109477;28;20052;-68
2022/10/03 03:32:47;;;;;;;7.70;6.10;;;;;;;17.73;93.83;101042.84;5110398;28;20520;-68
2022/10/03 03:35:45;;;;;;;9.02;5.50;;;;;;;17.67;94.47;101048.84;5103955;27;20035;-68
2022/10/03 03:38:40;;;;;;;8.85;5.70;;;;;;;17.54;94.99;101042.25;5110262;27;20055;-68
2022/10/03 03:41:39;;;;;;;8.93;5.03;;;;;;;17.55;94.72;101046.66;5098023;27;20055;-68
2022/10/03 03:44:26;;;;;;;10.40;6.50;;;;;;;17.52;94.87;101041.75;5104645;28;20044;-68
2022/10/03 03:47:09;;;;;;;10.88;6.22;;;;;;;17.44;95.68;101046.91;5092846;28;20505;-69
2022/10/03 03:50:05;;;;;;;8.55;5.30;;;;;;;17.38;96.14;101042.66;5102988;28;20067;-68
2022/10/03 03:52:48;;;;;;;8.40;5.60;;;;;;;17.25;96.63;101043.53;5102453;28;20047;-68
2022/10/03 03:55:44;;;;;;;9.32;5.38;;;;;;;17.28;96.26;101045.66;5097819;28;20048;-68
2022/10/03 03:58:38;;;;;;;7.80;5.32;;;;;;;17.22;97.26;101056.03;5103987;27;20044;-68
2022/10/03 04:01:12;;;;;;;13.88;6.55;;;;;;;17.27;96.01;101060.63;5100982;28;20402;-68
2022/10/03 04:04:20;;;;;;;9.45;5.50;;;;;;;17.42;94.63;101064.97;5106231;28;20045;-68
2022/10/03 04:07:38;;;;;;;8.13;5.30;;;;;;;17.35;94.96;101070.91;5109913;28;20050;-68
2022/10/03 04:10:37;;;;;;;11.05;6.22;;;;;;;17.40;94.09;101070.00;4988849;28;20612;-68
2022/10/03 04:13:35;;;;;;;5.80;4.82;;;;;;;17.14;94.91;101068.66;4984533;28;20069;-68
2022/10/03 04:19:23;;;;;;;5.63;4.43;;;;;;;16.88;96.08;101080.28;5111109;28;20039;-68
2022/10/03 04:22:00;;;;;;;7.75;4.95;;;;;;;16.86;96.36;101078.97;5110624;28;20044;-68
2022/10/03 04:24:36;;;;;;;11.65;4.95;;;;;;;16.77;97.03;101084.41;5112410;28;20035;-68
2022/10/03 04:27:15;;;;;;;8.43;4.95;;;;;;;16.78;97.05;101084.06;5104598;28;20043;-68
2022/10/03 04:29:46;;;;;;;7.55;5.25;;;;;;;16.73;97.16;101078.69;5111017;28;20047;-68
2022/10/03 04:32:35;;;;;;;6.85;4.72;;;;;;;16.66;98.11;101084.63;5111166;28;20402;-68
2022/10/03 04:35:11;;;;;;;6.93;4.88;;;;;;;16.63;97.67;101074.16;5099418;28;20039;-68
2022/10/03 04:38:14;;;;;;;7.55;5.90;;;;;;;16.62;98.72;101066.22;5097111;28;20074;-68
2022/10/03 04:41:11;;;;;;;9.35;5.55;;;;;;;16.57;98.36;101064.34;5108113;28;20048;-68
2022/10/03 04:44:02;;;;;;;6.68;5.05;;;;;;;16.66;97.79;101062.50;5105351;28;20069;-70
2022/10/03 04:46:48;;;;;;;11.57;5.13;;;;;;;16.62;97.91;101053.19;5053290;28;20490;-71
2022/10/03 04:49:31;;;;;;;6.97;4.50;;;;;;;16.60;97.82;101058.22;5106435;28;20043;-70
2022/10/03 04:52:13;;;;;;;6.40;4.55;;;;;;;16.52;97.94;101057.00;5109088;28;20043;-70
2022/10/03 04:55:08;;;;;;;8.05;4.32;;;;;;;16.47;98.11;101051.59;5112251;28;20397;-70
2022/10/03 04:57:59;;;;;;;7.80;5.40;;;;;;;16.48;97.85;101055.16;5108804;28;20044;-70
2022/10/03 05:00:56;;;;;;;6.97;4.85;;;;;;;16.37;98.66;101049.03;5093939;28;20047;-70
2022/10/03 05:03:42;;;;;;;6.40;4.97;;;;;;;16.33;98.07;101053.53;5108411;28;20393;-71
2022/10/03 05:06:47;;;;;;;8.88;5.47;;;;;;;16.30;98.16;101051.38;5110776;28;20043;-70
2022/10/03 05:09:18;;;;;;;;;;;;;;;16.36;97.88;101053.75;5110754;28;20062;-69
2022/10/03 05:11:58;;;;;;;7.90;4.72;;;;;;;16.37;97.61;101054.53;5109557;28;19927;-69
2022/10/03 05:14:47;;;;;;;6.72;5.35;;;;;;;16.33;98.01;101051.59;5108147;28;20052;-69
2022/10/03 05:17:22;;;;;;;5.93;4.88;;;;;;;16.31;97.30;101064.91;5110209;28;20050;-68
2022/10/03 05:20:28;;;;;;;8.63;4.95;;;;;;;16.24;97.41;101062.53;5111063;28;20042;-68
2022/10/03 05:23:11;;;;;;;6.60;4.93;;;;;;;16.24;97.43;101068.06;5111274;28;20050;-69
2022/10/03 05:25:53;;;;;;;8.93;4.78;;;;;;;16.19;97.45;101065.41;5112081;27;20036;-68
2022/10/03 05:28:39;;;;;;;6.30;4.90;;;;;;;16.18;97.36;101076.75;5105678;27;20047;-68
2022/10/03 05:31:52;;;;;;;6.15;4.70;;;;;;;16.21;97.59;101074.22;5112266;27;20047;-69
2022/10/03 05:34:32;;;;;;;9.50;5.30;;;;;;;16.21;97.14;101084.41;5049593;28;20060;-69
2022/10/03 05:37:11;;;;;;;6.70;4.68;;;;;;;16.23;97.15;101087.72;5106368;28;20150;-69
2022/10/03 05:39:52;;;;;;;10.63;4.93;;;;;;;16.28;96.68;101092.31;5113543;27;20486;-69
2022/10/03 05:42:36;;;;;;;6.72;5.00;;;;;;;16.33;96.71;101093.00;5113175;28;20043;-70
2022/10/03 05:45:20;;;;;;;10.88;5.43;;;;;;;16.38;96.49;101095.69;5113974;27;20040;-69
2022/10/03 05:48:05;;;;;;;9.95;5.95;;;;;;;16.50;95.54;101086.06;5115216;28;20055;-68
2022/10/03 05:50:43;;;;;;;8.60;6.35;;;;;;;16.64;95.25;101091.56;5114861;28;20039;-68
2022/10/03 05:53:29;;;;;;;9.68;5.90;;;;;;;16.69;95.20;101087.88;5114848;28;20087;-68
2022/10/03 05:56:05;;;;;;;11.80;6.22;;;;;;;16.58;95.24;101088.13;5113704;28;20054;-69
2022/10/03 05:58:53;;;;;;;9.18;5.75;;;;;;;16.58;95.22;101090.88;5114695;28;20043;-68
2022/10/03 06:01:58;;;;;;;11.15;5.68;;;;;;;16.84;93.20;101093.09;5114797;28;20036;-69
2022/10/03 06:04:43;;;;;;;;;;;;;;;16.99;93.17;101102.16;5114879;28;20528;-69
2022/10/03 06:07:24;;;;;;;8.50;5.82;;;;;;;17.02;92.30;101110.66;5114435;28;19919;-69
2022/10/03 06:10:17;;;;;;;10.90;5.93;;;;;;;17.07;91.49;101109.75;5114581;28;20482;-69
2022/10/03 06:13:15;;;;;;;8.70;5.72;;;;;;;17.08;91.70;101108.63;5082103;28;20051;-69
2022/10/03 06:15:58;;;;;;;8.60;5.75;;;;;;;17.25;89.80;101113.47;5114389;28;20043;-70
2022/10/03 06:18:44;;;;;;;9.40;6.00;;;;;;;17.41;89.21;101119.47;5113264;28;20054;-69
2022/10/03 06:21:49;;;;;;;8.27;6.28;;;;;;;17.64;88.03;101108.41;5113855;28;20055;-69
2022/10/03 06:24:17;;;;;;;;;;;;;;;17.83;87.03;101112.91;5114183;28;20051;-69
2022/10/03 06:27:22;;;;;;;8.60;6.80;;;;;;;17.94;86.59;101114.28;5114206;28;19920;-70
2022/10/03 06:30:44;;;;;;;11.10;6.57;;;;;;;17.97;86.64;101121.97;5099852;28;20048;-69
2022/10/03 06:33:29;;;;;;;13.40;8.05;;;;;;;18.04;85.80;101127.03;5093397;28;20051;-69
2022/10/03 06:36:08;;;;;;;11.75;8.55;;;;;;;18.16;85.29;101126.47;5095890;28;20052;-69
2022/10/03 06:39:21;;;;;;;16.58;10.32;;;;;;;18.45;84.72;101122.38;5113967;28;20043;-68
2022/10/03 06:42:05;;;;;;;11.25;8.98;;;;;;;18.65;83.42;101128.44;5113218;28;20055;-69
2022/10/03 06:44:53;;;;;;;15.52;9.40;;;;;;;18.69;82.77;101112.81;5095207;28;20047;-69
2022/10/03 06:47:39;;;;;;;14.82;8.30;;;;;;;18.50;83.88;101119.47;5113348;28;20052;-69
2022/10/03 06:50:28;;;;;;;10.65;7.05;;;;;;;18.69;83.29;101123.91;5113099;28;20051;-70
2022/10/03 06:53:29;;;;;;;11.20;6.85;;;;;;;18.78;82.26;101130.28;5113340;28;20059;-70
2022/10/03 06:56:30;;;;;;;9.05;5.82;;;;;;;19.05;82.12;101138.66;5101169;28;20047;-70
2022/10/03 06:59:24;;;;;;;11.32;6.70;;;;;;;19.41;81.02;101139.53;5112558;28;20039;-70
2022/10/03 07:02:33;;;;;;;9.10;6.28;;;;;;;19.51;79.58;101124.50;5112454;28;20354;-69
2022/10/03 07:05:22;;;;;;;8.02;5.60;;;;;;;19.65;78.83;101138.19;5073362;28;20071;-69
2022/10/03 07:08:14;;;;;;;8.95;6.75;;;;;;;19.81;78.35;101141.28;5100388;28;20047;-68
2022/10/03 07:11:14;;;;;;;9.70;6.75;;;;;;;19.80;78.71;101131.31;5076054;28;20047;-69
2022/10/03 07:14:00;;;;;;;9.68;6.80;;;;;;;20.04;78.70;101138.31;5113174;28;20437;-69
2022/10/03 07:16:51;;;;;;;14.43;6.88;;;;;;;20.14;77.27;101135.97;5083605;28;20054;-69
2022/10/03 07:20:01;;;;;;;12.30;7.10;;;;;;;20.44;75.33;101139.97;5092483;28;20055;-68
2022/10/03 07:22:38;;;;;;;11.45;6.75;;;;;;;20.50;74.90;101150.56;5072540;28;20498;-69
2022/10/03 07:25:40;;;;;;;14.20;7.00;;;;;;;20.66;75.00;101159.16;5093062;28;20055;-68
2022/10/03 07:28:38;;;;;;;10.35;6.72;;;;;;;21.16;73.66;101167.88;5079213;28;20047;-69
2022/10/03 07:31:30;;;;;;;11.73;7.13;;;;;;;21.26;71.79;101169.44;5092619;28;20479;-68
2022/10/03 07:34:17;;;;;;;12.88;6.55;;;;;;;21.56;72.02;101171.34;5092749;28;20406;-68
2022/10/03 07:40:40;;;;;;;9.27;6.00;;;;;;;22.04;68.36;101173.84;5089183;28;20122;-69
2022/10/03 07:43:14;;;;;;;10.45;6.38;;;;;;;21.90;68.94;101180.56;5059451;28;20166;-68
2022/10/03 07:45:59;;;;;;;10.20;6.25;;;;;;;22.09;67.98;101188.38;5092540;28;20044;-68
2022/10/03 07:48:51;;;;;;;30.67;7.38;;;;;;;22.11;67.62;101185.25;5091323;28;20052;-68
2022/10/03 07:51:28;;;;;;;18.55;7.20;;;;;;;22.11;67.27;101185.25;5092489;28;20055;-69
2022/10/03 07:54:29;;;;;;;14.48;6.63;;;;;;;21.99;67.50;101177.66;5092462;28;20048;-69
2022/10/03 07:57:15;;;;;;;17.65;6.05;;;;;;;22.26;66.29;101190.16;5090418;28;20052;-68
2022/10/03 08:00:23;;;;;;;14.05;6.25;;;;;;;22.48;65.95;101192.88;5083406;28;20047;-68
2022/10/03 08:03:21;;;;;;;12.93;6.57;;;;;;;22.75;64.69;101185.81;5048960;28;20048;-68
2022/10/03 08:05:58;;;;;;;9.38;5.80;;;;;;;22.72;62.46;101178.13;5049010;28;20060;-67
2022/10/03 08:08:56;;;;;;;9.90;5.68;;;;;;;22.74;64.71;101181.41;5079183;28;20126;-68
2022/10/03 08:11:55;;;;;;;17.08;5.70;;;;;;;22.82;63.87;101174.88;5081012;28;20083;-68
2022/10/03 08:14:50;;;;;;;9.32;5.13;;;;;;;22.78;63.94;101176.72;5092089;28;20059;-68
2022/10/03 08:17:42;;;;;;;7.10;5.45;;;;;;;22.94;62.85;101170.44;5095290;28;20047;-67
2022/10/03 08:20:38;;;;;;;9.43;5.13;;;;;;;23.09;62.56;101175.31;5112246;28;20036;-68
2022/10/03 08:23:36;;;;;;;10.15;5.05;;;;;;;23.30;62.57;101174.34;5111359;28;20043;-68
2022/10/03 08:26:45;;;;;;;10.85;5.57;;;;;;;23.39;62.11;101176.19;5111516;28;20047;-68
2022/10/03 08:29:22;;;;;;;8.65;5.95;;;;;;;23.34;62.29;101186.47;5111936;28;20047;-68
2022/10/03 08:32:05;;;;;;;9.13;5.53;;;;;;;23.62;60.93;101182.06;5111778;28;20058;-68
2022/10/03 08:35:07;;;;;;;9.55;5.15;;;;;;;23.71;61.18;101184.69;5112120;28;20047;-68
2022/10/03 08:38:05;;;;;;;7.95;5.85;;;;;;;23.38;62.58;101194.13;5111435;28;20044;-68
2022/10/03 08:40:39;;;;;;;9.13;6.05;;;;;;;23.88;61.72;101192.78;5112243;28;20110;-68
2022/10/03 08:43:35;;;;;;;9.07;6.35;;;;;;;24.32;60.53;101195.91;5111456;28;20047;-68
2022/10/03 08:46:31;;;;;;;6.80;5.32;;;;;;;24.51;58.87;101203.59;5073163;28;20047;-68
2022/10/03 08:49:14;;;;;;;8.20;5.95;;;;;;;24.74;57.61;101194.56;5097984;28;20412;-68
2022/10/03 08:52:00;;;;;;;9.85;6.20;;;;;;;24.77;57.91;101191.03;5093523;28;20051;-68
2022/10/03 08:54:52;;;;;;;12.25;6.15;;;;;;;24.78;56.52;101187.06;5111934;28;20059;-68
2022/10/03 08:57:59;;;;;;;11.10;6.35;;;;;;;24.85;56.92;101184.47;5111267;28;20490;-68
2022/10/03 09:00:44;;;;;;;6.30;5.68;;;;;;;24.86;56.86;101179.66;5038342;28;20057;-68
2022/10/03 09:03:37;;;;;;;7.78;5.00;;;;;;;24.21;58.23;101187.25;5089204;28;20043;-80
2022/10/03 09:06:36;;;;;;;6.05;5.40;;;;;;;24.13;58.64;101186.25;5100763;28;20493;-80
2022/10/03 09:10:02;;;;;;;7.88;6.00;;;;;;;23.61;60.07;101184.03;5081311;28;20059;-79
2022/10/03 09:13:13;;;;;;;6.28;5.28;;;;;;;23.24;61.23;101184.13;5108671;28;20060;-80
2022/10/03 09:16:08;;;;;;;7.70;5.07;;;;;;;23.12;61.31;101184.16;5115239;28;20058;-80
2022/10/03 09:19:18;;;;;;;10.57;6.05;;;;;;;23.03;61.58;101190.66;5101514;28;20047;-80
2022/10/03 09:22:04;;;;;;;11.57;5.70;;;;;;;23.07;60.75;101205.53;5111719;28;20402;-80
2022/10/03 09:24:54;;;;;;;8.20;6.30;;;;;;;22.96;61.24;101190.44;5113144;28;20106;-80
2022/10/03 09:27:57;;;;;;;7.75;5.35;;;;;;;22.96;61.18;101196.03;5101172;28;20694;-80
2022/10/03 09:30:46;;;;;;;9.52;5.43;;;;;;;23.04;61.33;101183.94;5085264;28;20047;-80
2022/10/03 09:33:48;;;;;;;9.82;5.40;;;;;;;23.33;61.69;101192.38;5109490;28;20410;-80
2022/10/03 09:36:29;;;;;;;7.82;5.93;;;;;;;23.24;60.76;101186.91;5104021;28;20414;-80
2022/10/03 09:39:18;;;;;;;7.75;5.75;;;;;;;23.13;62.29;101186.59;5110976;28;20043;-79
2022/10/03 09:42:09;;;;;;;9.07;6.07;;;;;;;23.15;62.41;101184.25;5114493;28;20052;-80
2022/10/03 09:45:15;;;;;;;10.65;6.53;;;;;;;23.16;61.34;101185.09;5095661;28;20066;-80
2022/10/03 09:48:05;;;;;;;8.35;6.13;;;;;;;23.27;61.57;101180.59;5095747;28;21558;-79
2022/10/03 09:50:52;;;;;;;9.82;5.22;;;;;;;23.19;62.96;101184.34;5113055;28;20043;-79
2022/10/03 09:53:53;;;;;;;12.15;5.60;;;;;;;23.16;61.66;101187.88;5113769;28;20044;-79
2022/10/03 09:56:32;;;;;;;7.60;6.05;;;;;;;23.20;60.88;101181.22;5087404;28;20058;-80
2022/10/03 09:59:06;;;;;;;9.15;5.75;;;;;;;23.21;60.45;101174.47;5110722;28;20044;-80
2022/10/03 10:01:59;;;;;;;9.13;5.72;;;;;;;23.32;60.88;101168.44;5112514;28;20397;-80
2022/10/03 10:05:08;;;;;;;8.93;5.45;;;;;;;23.34;60.49;101178.09;5093186;28;20057;-80
2022/10/03 10:08:12;;;;;;;8.10;5.40;;;;;;;23.56;59.95;101170.31;5108689;28;20040;-79
2022/10/03 10:11:11;;;;;;;6.55;5.45;;;;;;;23.56;59.80;101170.31;5107084;28;20047;-80
2022/10/03 10:14:08;;;;;;;10.38;6.25;;;;;;;23.71;60.59;101159.56;5104207;28;20043;-80
2022/10/03 10:17:03;;;;;;;10.02;5.80;;;;;;;23.53;60.08;101156.25;5110492;28;20058;-81
2022/10/03 10:19:50;;;;;;;8.13;6.07;;;;;;;23.71;60.45;101151.16;5106084;28;20051;-81
2022/10/03 10:22:39;;;;;;;7.63;5.60;;;;;;;23.70;61.07;101155.16;5109184;28;20044;-82
2022/10/03 10:25:23;;;;;;;9.90;6.07;;;;;;;23.75;62.47;101150.09;5099487;28;20513;-82
2022/10/03 10:28:15;;;;;;;9.15;6.05;;;;;;;23.82;59.87;101151.47;5106393;28;20413;-81
2022/10/03 10:31:42;;;;;;;7.47;5.45;;;;;;;23.82;59.88;101152.28;5110346;28;20055;-82
2022/10/03 10:34:23;;;;;;;9.27;6.07;;;;;;;23.64;60.51;101151.78;5090761;28;20405;-81
2022/10/03 10:37:17;;;;;;;9.52;6.28;;;;;;;23.76;59.67;101142.53;5103990;28;20245;-82
2022/10/03 10:40:08;;;;;;;9.57;5.95;;;;;;;23.80;59.57;101143.41;5094186;28;20497;-81
2022/10/03 10:43:16;;;;;;;7.88;6.00;;;;;;;24.08;58.83;101151.00;5106399;28;20047;-83
2022/10/03 10:46:23;;;;;;;10.10;5.70;;;;;;;24.06;58.89;101150.50;5106769;28;20056;-82
2022/10/03 10:49:37;;;;;;;11.10;5.93;;;;;;;23.91;58.19;101151.28;5101931;28;20059;-81
2022/10/03 10:52:26;;;;;;;7.75;5.53;;;;;;;24.10;57.78;101140.25;5103347;28;20048;-81
2022/10/03 10:55:24;;;;;;;9.15;5.22;;;;;;;24.29;55.00;101135.91;5081717;28;20048;-80
2022/10/03 10:58:26;;;;;;;9.65;5.60;;;;;;;24.21;55.82;101134.13;5110531;28;20051;-80
2022/10/03 11:01:16;;;;;;;6.50;5.20;;;;;;;23.96;56.40;101128.69;5129014;27;20046;-81
2022/10/03 11:04:37;;;;;;;8.30;5.32;;;;;;;24.38;55.61;101119.78;5088681;28;20486;-78
2022/10/03 11:07:46;;;;;;;;;;;;;;;24.53;55.61;101122.91;5106398;28;20490;-81
2022/10/03 11:10:58;;;;;;;5.75;4.90;;;;;;;24.47;55.34;101124.34;5089782;28;20378;-81
2022/10/03 11:13:30;;;;;;;6.13;4.32;;;;;;;24.59;55.39;101120.66;5069905;28;20060;-81
2022/10/03 11:16:26;;;;;;;6.68;4.95;;;;;;;24.75;55.02;101113.03;5104122;28;20111;-81
2022/10/03 11:18:54;;;;;;;5.90;4.80;;;;;;;24.98;55.81;101119.97;5101645;28;20040;-82
2022/10/03 11:21:59;;;;;;;8.80;5.20;;;;;;;25.17;55.49;101119.97;5099990;27;20048;-80
2022/10/03 11:24:33;;;;;;;7.80;6.05;;;;;;;25.21;54.13;101109.66;5106269;27;20043;-80
2022/10/03 11:27:31;;;;;;;11.43;5.70;;;;;;;25.27;54.19;101120.56;5109714;27;20059;-80
2022/10/03 11:30:50;;;;;;;10.40;5.68;;;;;;;25.26;53.60;101111.34;5104526;27;20036;-81
2022/10/03 11:33:34;;;;;;;6.38;5.00;;;;;;;25.32;53.35;101109.88;5070605;28;20035;-80
2022/10/03 11:36:34;;;;;;;6.85;5.43;;;;;;;25.34;52.36;101104.72;5107255;28;20043;-81
2022/10/03 11:39:41;;;;;;;6.32;5.32;;;;;;;25.35;53.53;101109.16;5106800;28;20063;-80
2022/10/03 11:42:31;;;;;;;8.65;4.93;;;;;;;25.26;53.37;101113.34;5087226;28;20058;-81
2022/10/03 11:45:29;;;;;;;8.25;5.82;;;;;;;25.28;53.56;101108.19;5090607;28;20055;-82
2022/10/03 11:48:14;;;;;;;8.68;5.75;;;;;;;25.49;53.50;101105.81;5084533;28;20043;-80
2022/10/03 11:50:51;;;;;;;10.55;5.40;;;;;;;25.56;53.31;101099.56;5105754;28;20040;-81
2022/10/03 11:53:25;;;;;;;9.50;6.85;;;;;;;25.58;53.95;101102.00;5108602;28;20417;-80
2022/10/03 11:55:53;;;;;;;10.82;6.53;;;;;;;25.80;53.66;101091.97;5105760;28;20043;-80
2022/10/03 11:58:26;;;;;;;6.63;5.40;;;;;;;25.59;53.44;101098.00;5109441;28;20043;-80
2022/10/03 12:01:17;;;;;;;9.68;6.45;;;;;;;25.76;53.45;101093.94;5107260;28;20047;-81
2022/10/03 12:04:25;;;;;;;10.95;6.93;;;;;;;25.74;53.57;101087.88;5108365;28;20474;-80
2022/10/03 12:10:37;;;;;;;8.68;6.05;;;;;;;26.02;53.22;101079.16;5109707;28;20043;-81
2022/10/03 12:13:17;;;;;;;10.02;6.20;;;;;;;26.05;52.53;101090.81;5025126;28;20041;-80
2022/10/03 12:15:53;;;;;;;8.45;5.82;;;;;;;26.10;51.44;101082.09;5105014;28;20398;-81
2022/10/03 12:18:27;;;;;;;9.63;6.47;;;;;;;26.09;52.39;101081.25;5105214;28;20066;-80
2022/10/03 12:21:18;;;;;;;9.45;6.43;;;;;;;26.24;52.44;101079.53;5108703;28;20036;-80
2022/10/03 12:24:07;;;;;;;7.60;6.07;;;;;;;26.03;52.47;101077.16;5108995;28;20036;-80
2022/10/03 12:27:00;;;;;;;8.50;5.65;;;;;;;26.11;52.06;101083.69;5108824;28;20058;-80
2022/10/03 12:29:35;;;;;;;8.27;5.80;;;;;;;26.12;52.70;101080.53;5070922;28;20489;-80
2022/10/03 12:32:18;;;;;;;10.25;6.22;;;;;;;26.31;50.93;101087.25;5106102;28;20035;-80
2022/10/03 12:35:01;;;;;;;10.05;6.82;;;;;;;26.09;50.90;101069.25;5110295;28;20055;-81
2022/10/03 12:37:41;;;;;;;11.07;6.03;;;;;;;26.27;50.95;101070.38;5113808;28;20055;-84
2022/10/03 12:40:35;;;;;;;9.43;5.90;;;;;;;26.39;50.57;101071.34;5095320;28;20048;-81
2022/10/03 12:43:23;;;;;;;7.30;5.32;;;;;;;26.42;50.36;101060.19;5114674;28;20386;-81
2022/10/03 12:46:01;;;;;;;7.05;5.30;;;;;;;26.54;50.09;101064.75;5114283;28;20121;-81
2022/10/03 12:48:55;;;;;;;8.90;6.38;;;;;;;26.48;50.98;101063.47;5111530;28;20047;-84
2022/10/03 12:51:41;;;;;;;11.88;7.35;;;;;;;26.39;50.21;101058.13;5111599;28;20051;-83
2022/10/03 12:54:34;;;;;;;11.23;6.60;;;;;;;26.55;50.30;101055.13;5115049;28;20050;-83
2022/10/03 12:57:27;;;;;;;9.70;6.63;;;;;;;26.49;50.74;101047.44;5112289;28;20056;-82
2022/10/03 13:00:20;;;;;;;10.13;6.63;;;;;;;26.38;51.22;101064.91;5113574;28;20040;-82
2022/10/03 13:03:18;;;;;;;8.57;6.55;;;;;;;26.37;50.96;101051.25;5115114;28;20390;-83
2022/10/03 13:05:57;;;;;;;9.68;6.68;;;;;;;26.41;50.65;101060.56;5107815;28;20051;-82
2022/10/03 13:08:51;;;;;;;8.73;5.50;;;;;;;26.64;49.96;101054.06;5096459;28;20047;-82
2022/10/03 13:11:50;;;;;;;8.77;5.63;;;;;;;26.53;49.45;101051.09;5100764;28;20289;-82
2022/10/03 13:14:29;;;;;;;5.90;4.90;;;;;;;26.59;48.99;101052.41;5111180;28;20040;-83
2022/10/03 13:17:16;;;;;;;7.30;4.95;;;;;;;26.69;48.40;101053.75;5113067;28;20363;-82
2022/10/03 13:19:50;;;;;;;6.72;5.07;;;;;;;26.79;48.14;101053.06;5113128;28;20054;-80
2022/10/03 13:22:34;;;;;;;9.00;5.70;;;;;;;26.63;47.96;101053.25;5112130;28;20046;-80
2022/10/03 13:25:22;;;;;;;7.13;5.35;;;;;;;26.82;50.00;101057.09;5085428;28;20398;-82